| time (UTC) | temp C | wind direction | speed KPH | gust KPH | rain 1hr cm | rain 24hr cm | rain mn cm | humidity % | barometer mb |
| 20260507191554 | -17 | 304 | 1.6 | 9.7 | 0.00 | 0.05 | 0.00 | 1014.1 | |
| 20260507190046 | -17 | 301 | 3.2 | 12.9 | 0.00 | 0.05 | 0.00 | 1013.9 | |
| 20260507184539 | -17 | 294 | 4.8 | 12.9 | 0.00 | 0.05 | 0.00 | 1013.7 | |
| 20260507183036 | -17 | 306 | 3.2 | 14.5 | 0.00 | 0.05 | 0.00 | 1013.5 | |
| 20260507181531 | -17 | 292 | 3.2 | 11.3 | 0.00 | 0.05 | 0.00 | 1013.3 | |
| 20260507180025 | -17 | 312 | 4.8 | 16.1 | 0.00 | 0.05 | 0.00 | 1013.2 | |
| 20260507174534 | -17 | 311 | 6.4 | 19.3 | 0.00 | 0.05 | 0.00 | 1013.0 | |
| 20260507173019 | -17 | 299 | 4.8 | 19.3 | 0.00 | 0.05 | 0.00 | 1012.8 | |
| 20260507171516 | -17 | 292 | 11.3 | 17.7 | 0.00 | 0.05 | 0.00 | 1012.7 | |
| 20260507170010 | -17 | 295 | 4.8 | 19.3 | 0.00 | 0.05 | 0.00 | 1012.6 | |
| 20260507164504 | -17 | 302 | 12.9 | 22.5 | 0.00 | 0.05 | 0.00 | 1012.6 | |
| 20260507163100 | -17 | 300 | 9.7 | 22.5 | 0.00 | 0.05 | 0.00 | 1012.5 | |
| 20260507161556 | -17 | 313 | 8.0 | 20.9 | 0.00 | 0.05 | 0.00 | 1012.5 | |
| 20260507160054 | -17 | 295 | 14.5 | 22.5 | 0.00 | 0.05 | 0.00 | 1012.5 | |
| 20260507154548 | -17 | 290 | 11.3 | 19.3 | 0.00 | 0.05 | 0.00 | 1012.5 | |
| 20260507153049 | -17 | 264 | 14.5 | 24.1 | 0.00 | 0.05 | 0.00 | 1012.4 | |
| 20260507151537 | -17 | 267 | 4.8 | 16.1 | 0.00 | 0.05 | 0.00 | 1012.4 | |
| 20260507150039 | -17 | 260 | 12.9 | 24.1 | 0.00 | 0.05 | 0.00 | 1012.3 | |
| 20260507144528 | -17 | 322 | 11.3 | 17.7 | 0.00 | 0.05 | 0.00 | 1012.2 | |
| 20260507143027 | -17 | 279 | 9.7 | 19.3 | 0.00 | 0.05 | 0.00 | 1012.3 | |
| 20260507141523 | -17 | 280 | 12.9 | 24.1 | 0.00 | 0.05 | 0.00 | 1012.2 | |
| 20260507140018 | -17 | 312 | 12.9 | 22.5 | 0.00 | 0.05 | 0.00 | 1012.3 | |
| 20260507134514 | -17 | 280 | 14.5 | 25.7 | 0.00 | 0.05 | 0.00 | 1012.3 | |
| 20260507133010 | -17 | 291 | 9.7 | 24.1 | 0.00 | 0.05 | 0.00 | 1012.2 | |
| 20260507131514 | -17 | 286 | 12.9 | 25.7 | 0.00 | 0.05 | 0.00 | 1012.2 | |
| 20260507130004 | -17 | 301 | 14.5 | 27.4 | 0.00 | 0.05 | 0.00 | 1012.3 | |
| 20260507124602 | -17 | 302 | 11.3 | 25.7 | 0.00 | 0.05 | 0.00 | 1012.1 | |
| 20260507123056 | -17 | 306 | 22.5 | 37.0 | 0.00 | 0.05 | 0.00 | 1012.0 | |
| 20260507121603 | -17 | 276 | 14.5 | 27.4 | 0.00 | 0.05 | 0.00 | 1012.0 | |
| 20260507120046 | -17 | 262 | 19.3 | 30.6 | 0.00 | 0.05 | 0.00 | 1012.0 | |
| 20260507114553 | -17 | 273 | 17.7 | 27.4 | 0.00 | 0.05 | 0.00 | 1012.1 | |
| 20260507113038 | -17 | 250 | 11.3 | 32.2 | 0.00 | 0.05 | 0.00 | 1012.1 | |
| 20260507111534 | -17 | 269 | 14.5 | 29.0 | 0.00 | 0.05 | 0.00 | 1012.3 | |
| 20260507110029 | -17 | 280 | 16.1 | 32.2 | 0.00 | 0.05 | 0.00 | 1012.4 | |
| 20260507104524 | -17 | 308 | 17.7 | 29.0 | 0.00 | 0.05 | 0.00 | 1012.4 | |
| 20260507103020 | -17 | 298 | 17.7 | 37.0 | 0.00 | 0.05 | 0.00 | 1012.4 | |
| 20260507101517 | -17 | 277 | 9.7 | 29.0 | 0.00 | 0.05 | 0.00 | 1012.5 | |
| 20260507100011 | -17 | 259 | 4.8 | 27.4 | 0.00 | 0.05 | 0.00 | 1012.5 | |
| 20260507094506 | -17 | 297 | 12.9 | 29.0 | 0.00 | 0.05 | 0.00 | 1012.6 | |
| 20260507093003 | -17 | 262 | 19.3 | 33.8 | 0.00 | 0.05 | 0.00 | 1012.5 | |
| 20260507091559 | -17 | 252 | 14.5 | 27.4 | 0.00 | 0.05 | 0.00 | 1012.5 | |
| 20260507090056 | -17 | 264 | 12.9 | 29.0 | 0.00 | 0.05 | 0.00 | 1012.4 | |
| 20260507084548 | -17 | 261 | 14.5 | 24.1 | 0.00 | 0.05 | 0.00 | 1012.4 | |
| 20260507083044 | -17 | 317 | 16.1 | 27.4 | 0.00 | 0.05 | 0.00 | 1012.2 | |
| 20260507081547 | -17 | 243 | 11.3 | 33.8 | 0.00 | 0.05 | 0.00 | 1012.1 | |
| 20260507080036 | -17 | 279 | 16.1 | 29.0 | 0.00 | 0.05 | 0.00 | 1012.0 | |
| 20260507074549 | -17 | 250 | 9.7 | 19.3 | 0.00 | 0.05 | 0.00 | 1012.0 | |
| 20260507073027 | -17 | 281 | 14.5 | 22.5 | 0.00 | 0.05 | 0.00 | 1012.1 | |
| 20260507071522 | -17 | 265 | 11.3 | 19.3 | 0.00 | 0.05 | 0.00 | 1011.9 | |
| 20260507070021 | -17 | 289 | 11.3 | 24.1 | 0.00 | 0.05 | 0.00 | 1011.8 | |
| 20260507064513 | -17 | 265 | 8.0 | 19.3 | 0.00 | 0.05 | 0.00 | 1011.8 | |
| 20260507063016 | -17 | 260 | 12.9 | 22.5 | 0.00 | 0.05 | 0.00 | 1011.8 | |
| 20260507061504 | -17 | 272 | 6.4 | 20.9 | 0.00 | 0.05 | 0.00 | 1011.9 | |
| 20260507060105 | -17 | 282 | 8.0 | 17.7 | 0.00 | 0.05 | 0.00 | 1011.9 | |
| 20260507054637 | -17 | 261 | 3.2 | 14.5 | 0.00 | 0.05 | 0.00 | 1011.7 | |
| 20260507053053 | -17 | 260 | 3.2 | 12.9 | 0.00 | 0.05 | 0.00 | 1011.7 | |
| 20260507051547 | -17 | 259 | 3.2 | 14.5 | 0.00 | 0.05 | 0.00 | 1011.4 | |
| 20260507050042 | -17 | 276 | 0.0 | 9.7 | 0.00 | 0.05 | 0.00 | 1011.2 | |
| 20260507044546 | -17 | 270 | 1.6 | 9.7 | 0.00 | 0.05 | 0.00 | 1011.0 | |
| 20260507043033 | -17 | 271 | 0.0 | 14.5 | 0.00 | 0.05 | 0.00 | 1010.7 | |
| 20260507041529 | -17 | 274 | 1.6 | 11.3 | 0.00 | 0.05 | 0.00 | 1010.6 | |
| 20260507040027 | -17 | 276 | 6.4 | 14.5 | 0.00 | 0.05 | 0.00 | 1010.5 | |
| 20260507034520 | -17 | 277 | 4.8 | 12.9 | 0.00 | 0.05 | 0.00 | 1010.5 | |
| 20260507033021 | -17 | 279 | 3.2 | 12.9 | 0.00 | 0.05 | 0.00 | 1010.3 | |
| 20260507031511 | -17 | 277 | 3.2 | 12.9 | 0.00 | 0.05 | 0.00 | 1010.2 | |
| 20260507030007 | -17 | 278 | 0.0 | 6.4 | 0.00 | 0.05 | 0.00 | 1010.1 | |
| 20260507024503 | -17 | 277 | 3.2 | 12.9 | 0.00 | 0.05 | 0.00 | 1010.1 | |
| 20260507023106 | -17 | 279 | 4.8 | 12.9 | 0.00 | 0.05 | 0.00 | 1010.0 | |
| 20260507021554 | -17 | 257 | 1.6 | 11.3 | 0.00 | 0.05 | 0.00 | 1010.0 | |
| 20260507020055 | -17 | 260 | 1.6 | 14.5 | 0.00 | 0.05 | 0.00 | 1010.0 | |
| 20260507014551 | -17 | 269 | 4.8 | 14.5 | 0.00 | 0.05 | 0.00 | 1009.9 | |
| 20260507013044 | -17 | 277 | 3.2 | 12.9 | 0.00 | 0.05 | 0.00 | 1009.7 | |
| 20260507011538 | -17 | 265 | 0.0 | 4.8 | 0.00 | 0.05 | 0.00 | 1009.7 | |
| 20260507010034 | -17 | 266 | 1.6 | 12.9 | 0.00 | 0.05 | 0.00 | 1009.7 | |
| 20260507004527 | -17 | 273 | 3.2 | 20.9 | 0.00 | 0.05 | 0.00 | 1009.7 | |
| 20260507003022 | -17 | 267 | 4.8 | 17.7 | 0.00 | 0.05 | 0.00 | 1009.6 | |
| 20260507001524 | -17 | 266 | 6.4 | 16.1 | 0.00 | 0.05 | 0.00 | 1009.5 | |
| 20260507000016 | -17 | 269 | 6.4 | 16.1 | 0.00 | 0.05 | 0.00 | 1009.6 | |
| 20260506234513 | -17 | 260 | 3.2 | 12.9 | 0.00 | 0.05 | 0.00 | 1009.5 | |
| 20260506233005 | -17 | 261 | 4.8 | 12.9 | 0.00 | 0.05 | 0.00 | 1009.4 | |
| 20260506231501 | -17 | 270 | 8.0 | 19.3 | 0.00 | 0.05 | 0.00 | 1009.3 | |
| 20260506230056 | -17 | 271 | 4.8 | 14.5 | 0.00 | 0.05 | 0.00 | 1009.2 | |
| 20260506224552 | -17 | 255 | 4.8 | 16.1 | 0.00 | 0.05 | 0.00 | 1009.0 | |
| 20260506223047 | -17 | 244 | 4.8 | 16.1 | 0.00 | 0.05 | 0.00 | 1009.0 | |
| 20260506221543 | -17 | 280 | 8.0 | 17.7 | 0.00 | 0.05 | 0.00 | 1008.7 | |
| 20260506220039 | -17 | 254 | 1.6 | 11.3 | 0.00 | 0.05 | 0.00 | 1008.7 | |
| 20260506214536 | -17 | 266 | 4.8 | 17.7 | 0.00 | 0.05 | 0.05 | 1008.4 | |
| 20260506213031 | -17 | 244 | 4.8 | 17.7 | 0.00 | 0.05 | 0.05 | 1008.2 | |
| 20260506211526 | -17 | 265 | 8.0 | 24.1 | 0.00 | 0.05 | 0.05 | 1008.1 | |
| 20260506210021 | -17 | 263 | 11.3 | 27.4 | 0.00 | 0.05 | 0.05 | 1007.7 | |
| 20260506204523 | -17 | 298 | 14.5 | 32.2 | 0.00 | 0.05 | 0.05 | 1007.5 | |
| 20260506203012 | -17 | 263 | 14.5 | 32.2 | 0.00 | 0.05 | 0.05 | 1007.1 | |
| 20260506201509 | -17 | 253 | 11.3 | 46.7 | 0.03 | 0.05 | 0.05 | 1007.1 | |
| 20260506200004 | -17 | 255 | 8.0 | 24.1 | 0.05 | 0.05 | 0.05 | 1006.7 | |
| 20260506194634 | -17 | 243 | 6.4 | 20.9 | 0.05 | 0.05 | 0.05 | 1006.4 | |
| 20260506193104 | -17 | 269 | 3.2 | 17.7 | 0.05 | 0.05 | 0.05 | 1006.0 |